Haleiwa, Hawaii
Current Conditions -  °F | °C
As of 6:58 PM on Saturday 25 Oct 2014 (Local Time) from PHHI Reporting Station
Clear Clear  
Wind Chill: 75°   Ceiling: Unl
Heat Index: 75°   Visibility: 10mi
Dew Point: 68°   Wind: 8mph
Humidity: 78%   Direction: 50°NE
Pressure: 30.01"   Gusts: NA
Location:  21.58°N, 158.1°W
Report Text: PHHI 260458Z AUTO 05007KT 10SM CLR 24/20 A3001 RMK AO2 SLP154 T02390199 $
Loading
Personal Weather Stations






























Interactive Weather Map
Tropical Storm Tracking
New forecast layout! Learn more

10-Day Weather Forecast

Advertisements
Track Severe Weather on mobile